Time;durP1;ratioP1;P1;durP2;ratioP2;P2;SDS_P1;SDS_P2;PMS_P1;PMS_P2;Temp;Humidity;BMP_temperature;BMP_pressure;BME280_temperature;BME280_humidity;BME280_pressure;Samples;Min_cycle;Max_cycle;Signal;HPM_P1;HPM_P2
2022/06/08 00:00:22;;;;;;;4.20;3.90;;;14.60;99.90;;;;;;4922284;28;20450;-87
2022/06/08 00:02:51;;;;;;;4.10;3.70;;;14.60;99.90;;;;;;4924267;28;21090;-87
2022/06/08 00:05:18;;;;;;;3.83;3.40;;;14.60;99.90;;;;;;4924560;28;20940;-87
2022/06/08 00:07:43;;;;;;;3.90;3.60;;;14.50;99.90;;;;;;4930913;28;20454;-87
2022/06/08 00:10:10;;;;;;;3.40;3.20;;;14.60;99.90;;;;;;4921783;28;20438;-87
2022/06/08 00:12:36;;;;;;;3.47;3.27;;;14.60;99.90;;;;;;4934008;28;20184;-87
2022/06/08 00:15:02;;;;;;;3.30;3.00;;;14.50;99.90;;;;;;4918804;28;20489;-88
2022/06/08 00:17:28;;;;;;;6.53;3.93;;;14.50;99.90;;;;;;4921560;28;21032;-87
2022/06/08 00:19:54;;;;;;;3.30;3.10;;;14.60;99.90;;;;;;4924503;28;20990;-86
2022/06/08 00:22:20;;;;;;;3.60;3.30;;;14.60;99.90;;;;;;4930141;28;20195;-87
2022/06/08 00:24:46;;;;;;;5.03;3.17;;;14.60;99.90;;;;;;4924770;28;21127;-86
2022/06/08 00:27:12;;;;;;;6.40;3.23;;;14.60;99.90;;;;;;4918908;28;20544;-87
2022/06/08 00:29:38;;;;;;;3.07;2.80;;;14.70;99.90;;;;;;4925689;28;20184;-87
2022/06/08 00:32:04;;;;;;;3.40;3.10;;;14.70;99.90;;;;;;4932966;28;21483;-88
2022/06/08 00:34:29;;;;;;;4.37;2.90;;;14.70;99.90;;;;;;4934512;28;20951;-87
2022/06/08 00:36:55;;;;;;;3.40;3.00;;;14.70;99.90;;;;;;4922615;28;20811;-87
2022/06/08 00:39:20;;;;;;;3.90;3.60;;;14.70;99.90;;;;;;4921946;28;20190;-87
2022/06/08 00:42:04;;;;;;;2.90;2.70;;;14.70;99.90;;;;;;4923648;28;20570;-87
2022/06/08 00:44:36;;;;;;;4.30;2.70;;;14.60;99.90;;;;;;4918632;28;20736;-87
2022/06/08 00:47:05;;;;;;;5.50;3.00;;;14.60;99.90;;;;;;4922955;28;20870;-85
2022/06/08 00:49:39;;;;;;;3.47;3.17;;;14.50;99.90;;;;;;4918535;28;20440;-86
2022/06/08 00:52:06;;;;;;;3.80;3.20;;;14.50;99.90;;;;;;4923295;28;20538;-85
2022/06/08 00:54:35;;;;;;;3.33;3.00;;;14.50;99.90;;;;;;4928327;28;20817;-85
2022/06/08 00:57:19;;;;;;;3.53;3.33;;;14.50;99.90;;;;;;4922551;28;20456;-85
2022/06/08 00:59:55;;;;;;;4.53;4.13;;;14.40;99.90;;;;;;4922348;28;23371;-86
2022/06/08 01:02:20;;;;;;;3.40;3.10;;;14.40;99.90;;;;;;4940254;28;20455;-87
2022/06/08 01:04:46;;;;;;;3.60;3.10;;;14.40;99.90;;;;;;4928894;28;20431;-86
2022/06/08 01:07:19;;;;;;;3.70;3.50;;;14.30;99.90;;;;;;4922941;28;20727;-86
2022/06/08 01:09:45;;;;;;;3.97;3.60;;;14.30;99.90;;;;;;4926800;28;20211;-86
2022/06/08 01:12:15;;;;;;;4.17;3.33;;;14.30;99.90;;;;;;4922875;28;20548;-86
2022/06/08 01:14:41;;;;;;;3.90;3.17;;;14.30;99.90;;;;;;4936564;28;20441;-87
2022/06/08 01:17:13;;;;;;;4.70;4.13;;;14.40;99.90;;;;;;4932566;28;21535;-86
2022/06/08 01:19:44;;;;;;;3.73;3.43;;;14.40;99.90;;;;;;4932841;28;20808;-87
2022/06/08 01:22:13;;;;;;;3.93;3.63;;;14.40;99.90;;;;;;4922784;28;20447;-87
2022/06/08 01:24:39;;;;;;;5.23;3.37;;;14.40;99.90;;;;;;5006453;28;20495;-86
2022/06/08 01:27:16;;;;;;;3.80;3.50;;;14.40;99.90;;;;;;4924914;28;20450;-87
2022/06/08 01:30:04;;;;;;;3.97;2.90;;;14.40;99.90;;;;;;4931651;28;20450;-86
2022/06/08 01:32:33;;;;;;;3.90;3.60;;;14.40;99.90;;;;;;4918386;28;20447;-87
2022/06/08 01:35:26;;;;;;;3.83;3.53;;;14.40;99.90;;;;;;4915656;28;20910;-86
2022/06/08 01:38:16;;;;;;;4.10;3.80;;;14.30;99.90;;;;;;4920971;28;20534;-86
2022/06/08 01:41:01;;;;;;;3.97;3.67;;;14.40;99.90;;;;;;4921539;28;20478;-86
2022/06/08 01:43:57;;;;;;;3.60;3.30;;;14.30;99.90;;;;;;4922477;28;20442;-87
2022/06/08 01:46:32;;;;;;;3.73;3.50;;;14.20;99.90;;;;;;4920173;28;20961;-86
2022/06/08 01:49:21;;;;;;;3.63;3.27;;;14.20;99.90;;;;;;4922408;28;20461;-87
2022/06/08 01:52:14;;;;;;;5.60;3.80;;;14.20;99.90;;;;;;4932301;28;21020;-86
2022/06/08 01:54:58;;;;;;;4.07;3.63;;;14.10;99.90;;;;;;4935805;28;20451;-86
2022/06/08 01:57:52;;;;;;;3.97;3.53;;;14.00;99.90;;;;;;4944470;28;20525;-86
2022/06/08 02:00:51;;;;;;;4.00;3.70;;;14.00;99.90;;;;;;4920914;28;20471;-85
2022/06/08 02:03:36;;;;;;;3.50;3.20;;;14.00;99.90;;;;;;4930720;28;20527;-85
2022/06/08 02:06:06;;;;;;;3.70;3.40;;;14.00;99.90;;;;;;4925967;28;20448;-86
2022/06/08 02:08:52;;;;;;;3.40;3.20;;;13.90;99.90;;;;;;4924881;28;20819;-85
2022/06/08 02:11:37;;;;;;;4.67;4.00;;;14.00;99.90;;;;;;4976799;28;20439;-86
2022/06/08 02:14:23;;;;;;;3.40;3.20;;;13.90;99.90;;;;;;4921408;28;20446;-86
2022/06/08 02:17:00;;;;;;;3.37;3.00;;;13.90;99.90;;;;;;4915295;28;20443;-86
2022/06/08 02:19:50;;;;;;;4.13;3.53;;;13.80;99.90;;;;;;4917152;28;21133;-86
2022/06/08 02:22:27;;;;;;;3.97;3.67;;;13.80;99.90;;;;;;4920316;28;20470;-86
2022/06/08 02:25:15;;;;;;;5.33;4.20;;;13.80;99.90;;;;;;4922882;28;20435;-85
2022/06/08 02:27:49;;;;;;;4.23;3.93;;;13.80;99.90;;;;;;4923620;28;20467;-86
2022/06/08 02:30:23;;;;;;;4.23;3.70;;;13.80;99.90;;;;;;4922763;28;20811;-85
2022/06/08 02:35:46;;;;;;;3.83;3.53;;;13.70;99.90;;;;;;4918875;28;20466;-85
2022/06/08 02:38:15;;;;;;;4.03;3.53;;;13.60;99.90;;;;;;4917818;28;20443;-86
2022/06/08 02:40:47;;;;;;;4.53;4.07;;;13.60;99.90;;;;;;4921133;28;20471;-85
2022/06/08 02:43:20;;;;;;;4.80;3.63;;;13.60;99.90;;;;;;4921339;28;20497;-86
2022/06/08 02:45:54;;;;;;;3.60;3.40;;;13.60;99.90;;;;;;4919364;28;20439;-86
2022/06/08 02:48:19;;;;;;;4.67;4.27;;;13.50;99.90;;;;;;4913814;28;20455;-86
2022/06/08 02:50:54;;;;;;;3.97;3.63;;;13.50;99.90;;;;;;4918089;28;20447;-86
2022/06/08 02:53:20;;;;;;;3.73;3.43;;;13.50;99.90;;;;;;4927459;28;20841;-86
2022/06/08 02:55:56;;;;;;;4.30;4.00;;;13.50;99.90;;;;;;4921060;28;20530;-86
2022/06/08 02:58:29;;;;;;;3.77;3.47;;;13.50;99.90;;;;;;4928219;28;20202;-86
2022/06/08 03:01:00;;;;;;;3.53;3.33;;;13.50;99.90;;;;;;4918358;28;20594;-86
2022/06/08 03:03:48;;;;;;;4.40;4.00;;;13.40;99.90;;;;;;4925031;28;20435;-86
2022/06/08 03:06:18;;;;;;;4.03;3.50;;;13.40;99.90;;;;;;4929653;28;20495;-86
2022/06/08 03:08:56;;;;;;;7.43;3.30;;;13.40;99.90;;;;;;4916454;28;21022;-86
2022/06/08 03:11:24;;;;;;;3.13;2.93;;;13.30;99.90;;;;;;4918493;28;20462;-86
2022/06/08 03:14:00;;;;;;;3.10;2.90;;;13.30;99.90;;;;;;4920156;28;20436;-86
2022/06/08 03:16:31;;;;;;;3.80;2.97;;;13.30;99.90;;;;;;4919116;28;20458;-86
2022/06/08 03:18:57;;;;;;;3.93;3.63;;;13.40;99.90;;;;;;4918260;28;20438;-86
2022/06/08 03:21:23;;;;;;;3.70;3.27;;;13.30;99.90;;;;;;4909223;28;23275;-86
2022/06/08 03:23:49;;;;;;;5.60;3.50;;;13.30;99.90;;;;;;4920191;28;20443;-86
2022/06/08 03:26:16;;;;;;;4.13;3.83;;;13.30;99.90;;;;;;4921620;28;20187;-87
2022/06/08 03:28:42;;;;;;;7.83;4.03;;;13.30;99.90;;;;;;4926199;28;20451;-86
2022/06/08 03:31:07;;;;;;;4.27;3.90;;;13.30;99.90;;;;;;4924366;28;20502;-86
2022/06/08 03:33:33;;;;;;;5.73;4.00;;;13.30;99.90;;;;;;4930051;28;20261;-86
2022/06/08 03:35:59;;;;;;;4.10;3.80;;;13.30;99.90;;;;;;4920269;28;20416;-86
2022/06/08 03:38:25;;;;;;;8.20;3.90;;;13.30;99.90;;;;;;4926589;28;20318;-87
2022/06/08 03:40:51;;;;;;;4.10;3.73;;;13.30;99.90;;;;;;4916011;28;20370;-87
2022/06/08 03:43:16;;;;;;;5.07;3.83;;;13.30;99.90;;;;;;4923409;28;20435;-86
2022/06/08 03:45:49;;;;;;;4.03;3.53;;;13.40;99.90;;;;;;5005205;28;20187;-86
2022/06/08 03:48:19;;;;;;;3.93;3.60;;;13.40;99.90;;;;;;4925286;28;20199;-86
2022/06/08 03:50:56;;;;;;;4.00;3.70;;;13.50;99.90;;;;;;4918925;28;21656;-85
2022/06/08 03:53:32;;;;;;;3.80;3.50;;;13.50;99.90;;;;;;4925566;28;20782;-87
2022/06/08 03:56:01;;;;;;;4.33;3.57;;;13.50;99.90;;;;;;4920142;28;20438;-86
2022/06/08 03:58:26;;;;;;;4.80;4.27;;;13.50;99.90;;;;;;4932633;28;20594;-87
2022/06/08 04:00:55;;;;;;;6.60;4.13;;;13.50;99.90;;;;;;4916104;28;20512;-86
2022/06/08 04:03:27;;;;;;;3.73;3.43;;;13.60;99.90;;;;;;4921849;28;20235;-86
2022/06/08 04:05:54;;;;;;;3.80;3.50;;;13.60;99.90;;;;;;4923550;28;20450;-87
2022/06/08 04:08:20;;;;;;;4.67;3.30;;;13.70;99.90;;;;;;4930693;28;20442;-86
2022/06/08 04:10:46;;;;;;;4.00;3.70;;;13.70;99.90;;;;;;4931811;28;20620;-86
2022/06/08 04:13:11;;;;;;;5.40;3.60;;;13.80;99.90;;;;;;4920106;28;20191;-86
2022/06/08 04:15:42;;;;;;;3.33;3.03;;;13.90;99.90;;;;;;4922206;28;20236;-86
2022/06/08 04:18:25;;;;;;;3.43;3.17;;;13.90;99.90;;;;;;4912977;28;20184;-87
2022/06/08 04:20:56;;;;;;;4.53;3.10;;;14.00;99.90;;;;;;4932005;28;21232;-86
2022/06/08 04:23:42;;;;;;;3.47;3.17;;;14.10;99.90;;;;;;4921716;28;20847;-86
2022/06/08 04:26:08;;;;;;;3.13;2.93;;;14.10;99.90;;;;;;4921553;28;20443;-86
2022/06/08 04:28:34;;;;;;;5.40;3.27;;;14.20;99.90;;;;;;4926452;28;20478;-86
2022/06/08 04:31:06;;;;;;;3.73;3.20;;;14.30;99.90;;;;;;4925284;28;20438;-86
2022/06/08 04:33:31;;;;;;;3.63;3.33;;;14.30;99.90;;;;;;4923245;28;20183;-86
2022/06/08 04:35:58;;;;;;;4.40;3.27;;;14.30;99.90;;;;;;4917063;28;20992;-85
2022/06/08 04:38:24;;;;;;;3.57;3.37;;;14.30;99.90;;;;;;4914179;28;20192;-86
2022/06/08 04:40:50;;;;;;;4.43;4.03;;;14.30;99.90;;;;;;4915386;28;20547;-85
2022/06/08 04:43:16;;;;;;;4.27;3.73;;;14.30;99.90;;;;;;4930914;28;20470;-85
2022/06/08 04:45:44;;;;;;;5.00;3.67;;;14.10;99.90;;;;;;4921405;28;21509;-86
2022/06/08 04:48:10;;;;;;;5.03;3.63;;;14.10;99.90;;;;;;4916540;28;20857;-86
2022/06/08 04:50:36;;;;;;;3.90;3.60;;;14.00;99.90;;;;;;4920637;28;20530;-85
2022/06/08 04:53:02;;;;;;;3.30;3.10;;;14.00;99.90;;;;;;4923293;28;20584;-85
2022/06/08 04:55:28;;;;;;;4.17;3.60;;;13.90;99.90;;;;;;4920233;28;20675;-85
2022/06/08 04:57:53;;;;;;;4.20;3.33;;;13.90;99.90;;;;;;4917477;28;20451;-85
2022/06/08 05:00:21;;;;;;;3.80;3.20;;;13.80;99.90;;;;;;4926060;28;20202;-86
2022/06/08 05:02:48;;;;;;;3.83;3.53;;;13.80;99.90;;;;;;4921768;28;20196;-85
2022/06/08 05:05:36;;;;;;;5.60;3.60;;;13.70;99.90;;;;;;4919996;28;20801;-86
2022/06/08 05:08:03;;;;;;;3.73;3.20;;;13.80;99.90;;;;;;4916055;28;20443;-86
2022/06/08 05:10:31;;;;;;;4.53;3.43;;;13.80;99.90;;;;;;4918889;28;22194;-85
2022/06/08 05:12:57;;;;;;;5.13;3.20;;;13.80;99.90;;;;;;4917179;28;20450;-85
2022/06/08 05:15:28;;;;;;;3.67;3.27;;;13.90;99.90;;;;;;4922459;28;20876;-86
2022/06/08 05:17:54;;;;;;;3.30;3.10;;;13.90;99.90;;;;;;4932482;28;20530;-85
2022/06/08 05:20:21;;;;;;;2.80;2.53;;;14.00;99.90;;;;;;4934665;28;20501;-87
2022/06/08 05:22:47;;;;;;;8.10;2.93;;;14.10;99.90;;;;;;4925197;28;21795;-85
2022/06/08 05:25:17;;;;;;;4.00;3.60;;;14.20;99.90;;;;;;4922354;28;20481;-86
2022/06/08 05:27:43;;;;;;;4.70;2.77;;;14.30;99.90;;;;;;4921454;28;20294;-86
2022/06/08 05:30:10;;;;;;;2.93;2.73;;;14.40;99.90;;;;;;4926543;28;20454;-87
2022/06/08 05:32:36;;;;;;;3.87;2.60;;;14.60;99.90;;;;;;4921377;28;20187;-86
2022/06/08 05:35:02;;;;;;;3.90;2.87;;;14.80;99.90;;;;;;4921926;28;20446;-85
2022/06/08 05:37:27;;;;;;;6.13;2.73;;;15.00;99.90;;;;;;4919738;28;20446;-85
2022/06/08 05:39:53;;;;;;;3.10;2.80;;;15.00;99.90;;;;;;4922990;28;20195;-85
2022/06/08 05:42:19;;;;;;;3.43;2.90;;;15.10;99.90;;;;;;4920156;28;20248;-86
2022/06/08 05:44:52;;;;;;;3.37;2.63;;;15.40;99.90;;;;;;4919028;28;20195;-84
2022/06/08 05:47:18;;;;;;;2.83;2.50;;;15.50;99.90;;;;;;4915614;28;20982;-83
2022/06/08 05:49:44;;;;;;;2.97;2.70;;;15.50;99.90;;;;;;4923932;28;20455;-84
2022/06/08 05:52:10;;;;;;;3.77;2.80;;;15.40;99.90;;;;;;4925662;28;20635;-83
2022/06/08 05:54:36;;;;;;;5.07;2.70;;;15.40;99.90;;;;;;4925298;28;20195;-84
2022/06/08 05:57:03;;;;;;;2.93;2.63;;;15.40;99.90;;;;;;4924684;28;20443;-84
2022/06/08 05:59:29;;;;;;;4.23;3.20;;;15.40;99.90;;;;;;4936380;28;20576;-84
2022/06/08 06:01:55;;;;;;;5.73;5.33;;;15.50;99.90;;;;;;4924248;28;20475;-84
2022/06/08 06:04:21;;;;;;;11.70;10.70;;;15.50;99.90;;;;;;4922033;28;21034;-84
2022/06/08 06:06:47;;;;;;;3.40;3.10;;;15.50;99.90;;;;;;4925874;28;20196;-84
2022/06/08 06:09:15;;;;;;;3.07;2.80;;;15.60;99.90;;;;;;4921710;28;20438;-84
2022/06/08 06:11:43;;;;;;;3.00;2.80;;;15.70;99.90;;;;;;4924692;28;20451;-84
2022/06/08 06:14:09;;;;;;;6.30;2.80;;;15.70;99.90;;;;;;4921990;28;20490;-86
2022/06/08 06:16:34;;;;;;;4.37;2.90;;;15.60;99.90;;;;;;4927451;28;20439;-86
2022/06/08 06:19:00;;;;;;;9.63;3.03;;;15.60;99.90;;;;;;5018002;28;21438;-84
2022/06/08 06:21:26;;;;;;;3.03;2.70;;;15.70;99.90;;;;;;4922629;28;20485;-86
2022/06/08 06:23:53;;;;;;;3.17;2.87;;;15.90;99.90;;;;;;4938257;28;20192;-83
2022/06/08 06:26:19;;;;;;;3.07;2.80;;;15.90;99.90;;;;;;4923569;28;20442;-83
2022/06/08 06:28:45;;;;;;;2.63;2.43;;;16.00;99.90;;;;;;4922829;28;20457;-83
2022/06/08 06:31:21;;;;;;;5.70;2.67;;;16.10;99.90;;;;;;4920577;28;20530;-84
2022/06/08 06:33:47;;;;;;;3.13;2.83;;;16.10;99.90;;;;;;4934690;28;20529;-84
2022/06/08 06:36:16;;;;;;;3.53;2.20;;;16.00;99.90;;;;;;4932181;28;20450;-83
2022/06/08 06:38:41;;;;;;;3.00;2.80;;;15.90;99.90;;;;;;4924407;28;20549;-83
2022/06/08 06:41:07;;;;;;;4.63;2.17;;;16.00;99.90;;;;;;4936453;28;20474;-83
2022/06/08 06:43:35;;;;;;;2.63;2.43;;;16.10;99.90;;;;;;4920782;28;20271;-83
2022/06/08 06:46:00;;;;;;;2.63;2.40;;;16.30;99.90;;;;;;5000506;28;20191;-84
2022/06/08 06:48:26;;;;;;;3.30;1.97;;;16.40;99.90;;;;;;4923611;28;20453;-84
2022/06/08 06:50:52;;;;;;;2.57;2.37;;;16.30;99.90;;;;;;4922287;28;20211;-85
2022/06/08 06:53:17;;;;;;;2.97;2.30;;;16.40;99.90;;;;;;4923626;28;20196;-84
2022/06/08 06:55:43;;;;;;;2.40;2.20;;;16.40;99.90;;;;;;4921085;28;20194;-84
2022/06/08 06:58:08;;;;;;;4.93;2.03;;;16.40;99.90;;;;;;4922137;28;20198;-84
2022/06/08 07:00:35;;;;;;;5.17;2.00;;;16.40;99.90;;;;;;4924062;28;20302;-84
2022/06/08 07:03:01;;;;;;;2.83;2.63;;;16.40;99.90;;;;;;4923281;28;20191;-84
2022/06/08 07:05:31;;;;;;;2.80;2.60;;;16.50;99.90;;;;;;4922167;28;20513;-85
2022/06/08 07:07:57;;;;;;;2.93;2.47;;;16.50;99.90;;;;;;4935432;28;20797;-85
2022/06/08 07:10:23;;;;;;;3.63;2.40;;;16.40;99.90;;;;;;4922509;28;20448;-86
2022/06/08 07:12:49;;;;;;;3.00;2.67;;;16.50;99.90;;;;;;4921421;28;20186;-85
2022/06/08 07:15:17;;;;;;;3.13;2.40;;;16.50;99.90;;;;;;4931454;28;20549;-86
2022/06/08 07:17:42;;;;;;;3.10;1.80;;;16.60;99.90;;;;;;4925368;28;24370;-85
2022/06/08 07:20:10;;;;;;;2.30;2.00;;;16.80;99.90;;;;;;4931257;28;20984;-85
2022/06/08 07:22:35;;;;;;;2.70;2.23;;;16.90;99.90;;;;;;4921985;28;20510;-85
2022/06/08 07:25:01;;;;;;;3.30;2.20;;;17.00;99.90;;;;;;4925058;28;20443;-84
2022/06/08 07:27:27;;;;;;;2.30;2.07;;;16.90;99.90;;;;;;4925377;28;20195;-84
2022/06/08 07:29:53;;;;;;;3.37;2.03;;;16.90;99.90;;;;;;4923636;28;20189;-84
2022/06/08 07:32:19;;;;;;;3.57;2.10;;;17.00;99.90;;;;;;4922967;28;20187;-84
2022/06/08 07:34:44;;;;;;;3.60;2.40;;;17.00;99.90;;;;;;4927355;28;20455;-85
2022/06/08 07:37:10;;;;;;;3.80;2.33;;;17.20;99.90;;;;;;4934918;28;20586;-85
2022/06/08 07:39:36;;;;;;;3.53;2.30;;;17.10;99.90;;;;;;4925197;28;20183;-84
2022/06/08 07:42:03;;;;;;;5.43;2.13;;;17.20;99.90;;;;;;4919778;28;20243;-84
2022/06/08 07:44:29;;;;;;;3.80;1.97;;;17.10;99.90;;;;;;4928825;28;20553;-84
2022/06/08 07:46:54;;;;;;;5.77;2.27;;;17.20;99.90;;;;;;4923511;28;21042;-86
2022/06/08 07:49:41;;;;;;;3.93;2.30;;;17.20;99.90;;;;;;4926956;28;20446;-89
2022/06/08 07:52:19;;;;;;;6.40;5.80;;;17.10;99.90;;;;;;4926277;28;20651;-94
2022/06/08 07:54:45;;;;;;;2.53;2.03;;;17.10;99.90;;;;;;4927958;28;20538;-85
2022/06/08 07:57:18;;;;;;;3.67;2.23;;;17.00;99.90;;;;;;4918893;28;20885;-85
2022/06/08 07:59:45;;;;;;;5.83;2.33;;;17.20;99.90;;;;;;4928315;28;20804;-85
2022/06/08 08:02:11;;;;;;;4.80;2.60;;;17.60;99.90;;;;;;4912629;28;20497;-85
2022/06/08 08:04:37;;;;;;;3.20;2.57;;;17.70;99.90;;;;;;4919931;28;20453;-85
2022/06/08 08:07:04;;;;;;;2.47;2.23;;;17.90;99.90;;;;;;4919569;28;21130;-85
2022/06/08 08:09:33;;;;;;;2.50;2.30;;;18.00;99.90;;;;;;4919884;28;20249;-85
2022/06/08 08:12:00;;;;;;;3.77;2.30;;;18.20;99.90;;;;;;4915074;28;20454;-85
2022/06/08 08:14:26;;;;;;;3.07;1.93;;;18.30;99.90;;;;;;4919495;28;20822;-84
2022/06/08 08:16:53;;;;;;;6.03;2.50;;;18.10;99.90;;;;;;4921453;28;20458;-85
2022/06/08 08:19:21;;;;;;;3.00;1.90;;;17.80;99.90;;;;;;4919517;28;20538;-84
2022/06/08 08:21:49;;;;;;;3.93;2.13;;;17.70;99.90;;;;;;4939733;28;20490;-85
2022/06/08 08:24:15;;;;;;;2.23;1.80;;;17.60;99.90;;;;;;4922352;28;20442;-85
2022/06/08 08:26:44;;;;;;;4.27;2.67;;;17.80;99.90;;;;;;4915759;28;20792;-85
2022/06/08 08:29:10;;;;;;;2.43;2.23;;;17.80;99.90;;;;;;4926591;28;20464;-84
2022/06/08 08:31:37;;;;;;;2.40;2.20;;;18.00;99.90;;;;;;4924303;28;20968;-85
2022/06/08 08:34:04;;;;;;;2.30;2.20;;;18.10;99.90;;;;;;4929239;28;20191;-84
2022/06/08 08:36:30;;;;;;;3.57;2.20;;;18.20;99.90;;;;;;4922092;28;20820;-85
2022/06/08 08:38:55;;;;;;;2.30;1.57;;;18.20;99.90;;;;;;4931816;28;20450;-85
2022/06/08 08:44:28;;;;;;;2.90;1.70;;;18.60;99.90;;;;;;4918802;28;20361;-85
2022/06/08 08:47:19;;;;;;;2.90;1.80;;;18.70;99.90;;;;;;4924119;28;20454;-85
2022/06/08 08:50:18;;;;;;;2.70;1.83;;;18.80;99.90;;;;;;4919360;28;20481;-84
2022/06/08 08:52:56;;;;;;;2.50;1.77;;;18.90;99.90;;;;;;4919784;28;20582;-85
2022/06/08 08:55:33;;;;;;;4.67;1.90;;;19.10;99.90;;;;;;4922595;28;20439;-85
2022/06/08 08:58:15;;;;;;;1.83;1.60;;;19.20;99.90;;;;;;4916727;28;20537;-85
2022/06/08 09:00:52;;;;;;;1.87;1.33;;;19.40;99.90;;;;;;4961780;28;20491;-85
2022/06/08 09:03:39;;;;;;;1.13;1.10;;;19.70;99.90;;;;;;4946345;28;20458;-85
2022/06/08 09:06:14;;;;;;;2.23;2.03;;;19.90;99.90;;;;;;4922839;28;20511;-84
2022/06/08 09:08:52;;;;;;;2.93;1.73;;;19.70;99.90;;;;;;4929079;28;20818;-84
2022/06/08 09:11:22;;;;;;;1.70;1.40;;;19.70;99.90;;;;;;4915421;28;21086;-84
2022/06/08 09:13:54;;;;;;;1.63;1.30;;;19.70;99.90;;;;;;4934832;28;20439;-85
2022/06/08 09:16:28;;;;;;;3.37;1.50;;;19.70;99.70;;;;;;4920851;28;20537;-85
2022/06/08 09:18:53;;;;;;;2.37;1.30;;;19.80;99.90;;;;;;4916018;28;20446;-84
2022/06/08 09:21:22;;;;;;;2.40;1.63;;;19.70;99.90;;;;;;4922460;28;20501;-83
2022/06/08 09:23:51;;;;;;;2.93;1.80;;;19.90;99.90;;;;;;4916995;28;21974;-86
2022/06/08 09:26:29;;;;;;;2.93;1.90;;;20.10;99.90;;;;;;4918237;28;20968;-85
2022/06/08 09:29:14;;;;;;;3.77;1.70;;;20.20;99.20;;;;;;4913288;28;20743;-87
2022/06/08 09:31:39;;;;;;;2.60;1.33;;;20.20;99.40;;;;;;4918673;28;20478;-91
2022/06/08 09:34:13;;;;;;;3.60;1.70;;;20.20;99.70;;;;;;4919704;28;20871;-86
2022/06/08 09:36:39;;;;;;;1.73;1.33;;;20.40;99.80;;;;;;4914443;28;20211;-86
2022/06/08 09:39:04;;;;;;;7.30;6.70;;;20.60;98.30;;;;;;4921748;28;20605;-87
2022/06/08 09:41:39;;;;;;;17.10;15.80;;;20.80;98.70;;;;;;4999317;28;20439;-87
2022/06/08 09:44:18;;;;;;;2.03;1.40;;;21.20;98.00;;;;;;4917701;28;20186;-86
2022/06/08 09:53:02;;;;;;;2.40;1.40;;;21.60;94.40;;;;;;4921807;28;21046;-87
2022/06/08 09:55:47;;;;;;;1.43;1.00;;;21.70;94.20;;;;;;4918249;28;20451;-86
2022/06/08 09:58:30;;;;;;;3.03;1.60;;;22.20;92.70;;;;;;4917145;28;20522;-86
2022/06/08 10:01:04;;;;;;;3.97;1.43;;;22.70;91.60;;;;;;4917936;28;21222;-87
2022/06/08 10:03:55;;;;;;;1.50;1.40;;;22.80;92.60;;;;;;4919487;28;21201;-86
2022/06/08 10:06:52;;;;;;;1.70;1.13;;;22.30;92.30;;;;;;4921212;28;21645;-86
2022/06/08 10:09:30;;;;;;;1.80;1.30;;;22.10;90.50;;;;;;4922304;28;20454;-86
2022/06/08 10:12:01;;;;;;;2.07;1.20;;;22.30;91.00;;;;;;4921393;28;20450;-86
2022/06/08 10:14:42;;;;;;;3.03;1.30;;;22.40;91.10;;;;;;4921954;28;20786;-86
2022/06/08 10:17:26;;;;;;;2.87;1.20;;;22.50;90.30;;;;;;4924806;28;20486;-87
2022/06/08 10:19:58;;;;;;;2.70;1.10;;;22.60;86.10;;;;;;4923585;28;21209;-86
2022/06/08 10:22:27;;;;;;;2.33;1.40;;;22.40;89.70;;;;;;4927484;28;20463;-86
2022/06/08 10:24:58;;;;;;;1.67;1.20;;;22.30;89.50;;;;;;4920903;28;20584;-86
2022/06/08 10:27:41;;;;;;;2.00;1.20;;;22.10;90.40;;;;;;4915528;28;21044;-86
2022/06/08 10:30:54;;;;;;;1.30;1.20;;;22.10;90.10;;;;;;4919221;28;20960;-86
2022/06/08 10:33:54;;;;;;;1.57;1.10;;;22.00;89.60;;;;;;4922296;28;20445;-87
2022/06/08 10:36:21;;;;;;;1.60;1.50;;;21.90;90.20;;;;;;4919764;28;20616;-87
2022/06/08 10:38:49;;;;;;;1.20;1.10;;;22.10;90.50;;;;;;4919815;28;21829;-87
2022/06/08 10:44:58;;;;;;;1.07;1.07;;;22.40;87.00;;;;;;4921981;28;21406;-86
2022/06/08 10:47:37;;;;;;;1.83;1.10;;;23.10;83.10;;;;;;4919435;28;20443;-86
2022/06/08 10:50:03;;;;;;;1.43;1.03;;;23.50;84.10;;;;;;4923960;28;20516;-87
2022/06/08 10:52:50;;;;;;;1.17;1.00;;;23.70;81.80;;;;;;4920831;28;20934;-86
2022/06/08 10:55:17;;;;;;;3.67;1.20;;;23.90;79.70;;;;;;4924226;28;20990;-86
2022/06/08 10:57:52;;;;;;;1.37;1.17;;;24.00;80.20;;;;;;4916824;28;20442;-86
2022/06/08 11:00:40;;;;;;;4.30;1.20;;;23.90;79.60;;;;;;4917076;28;20463;-86
2022/06/08 11:03:33;;;;;;;1.90;1.07;;;23.80;78.90;;;;;;4916943;28;20482;-86
2022/06/08 11:05:59;;;;;;;1.67;1.10;;;24.10;80.20;;;;;;4914657;28;21312;-86
2022/06/08 11:08:44;;;;;;;1.70;1.17;;;24.20;76.70;;;;;;4916624;28;20939;-87
2022/06/08 11:11:09;;;;;;;1.13;1.07;;;24.30;75.00;;;;;;4920066;28;20183;-86
2022/06/08 11:13:49;;;;;;;2.50;1.10;;;24.70;78.50;;;;;;4917602;28;21539;-86
2022/06/08 11:16:24;;;;;;;1.13;0.90;;;25.10;74.40;;;;;;4918185;28;20198;-87
2022/06/08 11:18:54;;;;;;;1.20;0.97;;;24.90;71.50;;;;;;4929406;28;20487;-86
2022/06/08 11:21:45;;;;;;;2.30;0.90;;;24.70;72.30;;;;;;4919096;28;20507;-86
2022/06/08 11:24:17;;;;;;;1.47;1.10;;;24.50;69.80;;;;;;4915444;28;20446;-86
2022/06/08 11:26:50;;;;;;;1.77;1.10;;;24.70;74.00;;;;;;4922253;28;20470;-86
2022/06/08 11:29:20;;;;;;;2.50;1.40;;;24.80;76.00;;;;;;4916957;28;20457;-86
2022/06/08 11:31:48;;;;;;;1.53;1.00;;;24.10;76.20;;;;;;4917335;28;20475;-86
2022/06/08 11:34:46;;;;;;;1.90;1.10;;;23.70;73.00;;;;;;4918181;28;20442;-86
2022/06/08 11:37:43;;;;;;;1.33;1.23;;;24.00;76.30;;;;;;4927667;28;20524;-87
2022/06/08 11:40:08;;;;;;;1.30;1.20;;;23.70;77.30;;;;;;4931187;28;20435;-86
2022/06/08 11:42:44;;;;;;;1.30;1.20;;;23.90;80.90;;;;;;4919253;28;20490;-86
2022/06/08 11:45:15;;;;;;;2.10;1.37;;;23.90;76.20;;;;;;4916717;28;20188;-86
2022/06/08 11:47:44;;;;;;;2.20;1.30;;;24.40;85.40;;;;;;4917744;28;20450;-86
2022/06/08 11:50:17;;;;;;;1.17;1.03;;;24.70;80.90;;;;;;4922327;28;20458;-86
2022/06/08 11:52:46;;;;;;;1.50;1.40;;;24.50;79.20;;;;;;4919652;28;20641;-86
2022/06/08 11:55:19;;;;;;;1.77;1.20;;;24.60;78.70;;;;;;4923473;28;20443;-87
2022/06/08 11:57:58;;;;;;;2.70;1.20;;;25.00;72.00;;;;;;4920983;28;20651;-87
2022/06/08 12:00:29;;;;;;;1.37;1.27;;;25.00;69.10;;;;;;4921143;28;20499;-86
2022/06/08 12:03:17;;;;;;;1.30;1.10;;;24.80;68.70;;;;;;4921543;28;20823;-87
2022/06/08 12:05:48;;;;;;;1.43;1.00;;;25.10;70.30;;;;;;4916699;28;21242;-86
2022/06/08 12:08:38;;;;;;;2.30;1.17;;;25.40;69.60;;;;;;4918681;28;20544;-87
2022/06/08 12:11:05;;;;;;;6.57;1.27;;;25.30;69.10;;;;;;4918856;28;20469;-87
2022/06/08 12:13:31;;;;;;;2.30;1.13;;;24.80;69.30;;;;;;4922659;28;21002;-86
2022/06/08 12:16:04;;;;;;;1.13;0.90;;;24.80;69.80;;;;;;4918962;28;20442;-87
2022/06/08 12:18:37;;;;;;;1.23;1.13;;;25.30;69.40;;;;;;4917536;28;20443;-86
2022/06/08 12:21:03;;;;;;;1.43;0.97;;;25.50;66.90;;;;;;4918655;28;21113;-86
2022/06/08 12:23:37;;;;;;;1.70;1.10;;;25.80;65.20;;;;;;4915250;28;21153;-86
2022/06/08 12:26:03;;;;;;;1.20;1.10;;;24.30;66.60;;;;;;4921073;28;20191;-86
2022/06/08 12:28:29;;;;;;;1.43;0.97;;;23.60;70.00;;;;;;4924615;28;20462;-86
2022/06/08 12:30:57;;;;;;;1.03;0.87;;;23.50;70.00;;;;;;4920246;28;20450;-86
2022/06/08 12:33:26;;;;;;;1.13;1.00;;;24.00;71.30;;;;;;4919844;28;20199;-87
2022/06/08 12:36:01;;;;;;;1.40;0.90;;;24.00;70.30;;;;;;4920862;28;20455;-87
2022/06/08 12:38:29;;;;;;;1.63;1.07;;;24.30;67.20;;;;;;4921417;28;20455;-87
2022/06/08 12:41:11;;;;;;;1.83;1.00;;;24.20;69.00;;;;;;4931961;28;20561;-86
2022/06/08 12:43:49;;;;;;;1.30;0.97;;;24.30;65.60;;;;;;4916758;28;20454;-87
2022/06/08 12:46:27;;;;;;;1.43;1.20;;;24.60;64.10;;;;;;4921428;28;20899;-87
2022/06/08 12:49:13;;;;;;;2.93;1.23;;;24.70;62.70;;;;;;4931186;28;20528;-86
2022/06/08 12:51:43;;;;;;;2.70;0.80;;;24.90;65.30;;;;;;4927844;28;20458;-86
2022/06/08 12:54:17;;;;;;;0.90;0.90;;;25.10;63.30;;;;;;4945275;28;20612;-86
2022/06/08 12:56:45;;;;;;;1.43;1.27;;;25.10;62.80;;;;;;4915150;28;20450;-87
2022/06/08 12:59:11;;;;;;;0.70;0.70;;;25.00;64.20;;;;;;4922106;28;20431;-86
2022/06/08 13:01:39;;;;;;;3.30;0.90;;;25.00;65.60;;;;;;4921433;28;21016;-86
2022/06/08 13:04:04;;;;;;;1.83;1.10;;;24.70;62.90;;;;;;4921101;28;20883;-87
2022/06/08 13:06:31;;;;;;;2.77;0.77;;;25.00;64.40;;;;;;4921080;28;20451;-86
2022/06/08 13:08:57;;;;;;;1.83;1.20;;;25.00;64.90;;;;;;4924638;28;20847;-86
2022/06/08 13:11:25;;;;;;;2.37;1.10;;;24.90;64.40;;;;;;4930643;28;20755;-87
2022/06/08 13:13:51;;;;;;;1.73;1.10;;;25.20;63.70;;;;;;4920829;28;20178;-87
2022/06/08 13:16:23;;;;;;;3.43;1.10;;;25.10;62.60;;;;;;4927919;28;20451;-87
2022/06/08 13:18:51;;;;;;;1.53;0.93;;;24.90;63.30;;;;;;4920748;28;20431;-87
2022/06/08 13:21:17;;;;;;;3.13;1.07;;;24.70;62.90;;;;;;4918799;28;20507;-86
2022/06/08 13:23:43;;;;;;;1.17;0.90;;;24.50;64.10;;;;;;4921728;28;20435;-86